createdAt,value
2023-12-27T00:01:02.276Z,6.47
2023-12-27T00:03:51.351Z,6.44
2023-12-27T00:06:24.717Z,6.45
2023-12-27T00:08:58.948Z,6.47
2023-12-27T00:11:26.921Z,6.50
2023-12-27T00:13:54.631Z,6.47
2023-12-27T00:16:22.303Z,6.45
2023-12-27T00:18:50.319Z,6.44
2023-12-27T00:21:18.506Z,6.44
2023-12-27T00:23:46.199Z,6.44
2023-12-27T00:26:14.334Z,6.44
2023-12-27T00:28:42.317Z,6.42
2023-12-27T00:31:10.231Z,6.43
2023-12-27T00:33:38.503Z,6.42
2023-12-27T00:36:07.961Z,6.37
2023-12-27T00:38:36.693Z,6.35
2023-12-27T00:41:08.314Z,6.37
2023-12-27T00:43:36.229Z,6.36
2023-12-27T00:46:07.268Z,6.36
2023-12-27T00:48:35.131Z,6.32
2023-12-27T00:51:03.803Z,6.25
2023-12-27T00:53:31.742Z,6.23
2023-12-27T00:55:59.699Z,6.22
2023-12-27T00:58:27.410Z,6.21
2023-12-27T01:00:55.135Z,6.20
2023-12-27T01:03:23.414Z,6.20
2023-12-27T01:05:53.377Z,6.15
2023-12-27T01:08:21.222Z,6.11
2023-12-27T01:10:48.881Z,6.09
2023-12-27T01:13:18.704Z,6.06
2023-12-27T01:15:46.383Z,6.04
2023-12-27T01:18:14.289Z,6.03
2023-12-27T01:20:42.347Z,6.03
2023-12-27T01:23:12.195Z,6.02
2023-12-27T01:25:39.869Z,6.04
2023-12-27T01:28:07.760Z,6.04
2023-12-27T01:30:36.700Z,6.02
2023-12-27T01:33:04.676Z,6.01
2023-12-27T01:35:32.579Z,6.02
2023-12-27T01:38:00.512Z,5.97
2023-12-27T01:40:28.258Z,5.96
2023-12-27T01:42:56.157Z,5.94
2023-12-27T01:45:24.112Z,5.94
2023-12-27T01:47:52.078Z,5.88
2023-12-27T01:50:21.407Z,5.84
2023-12-27T01:52:49.194Z,5.82
2023-12-27T01:55:17.205Z,5.81
2023-12-27T01:57:45.885Z,5.79
2023-12-27T02:00:15.688Z,5.76
2023-12-27T02:02:43.638Z,5.74
2023-12-27T02:05:11.731Z,5.70
2023-12-27T02:07:41.768Z,5.68
2023-12-27T02:10:10.976Z,5.65
2023-12-27T02:12:38.697Z,5.62
2023-12-27T02:15:07.300Z,5.57
2023-12-27T02:17:35.527Z,5.55
2023-12-27T02:20:04.454Z,5.54
2023-12-27T02:22:34.788Z,5.50
2023-12-27T02:25:03.257Z,5.49
2023-12-27T02:27:33.218Z,5.43
2023-12-27T02:30:01.165Z,5.38
2023-12-27T02:32:28.905Z,5.33
2023-12-27T02:34:56.912Z,5.29
2023-12-27T02:37:24.773Z,5.26
2023-12-27T02:39:52.454Z,5.23
2023-12-27T02:42:20.517Z,5.15
2023-12-27T02:44:48.227Z,5.13
2023-12-27T02:47:18.692Z,5.08
2023-12-27T02:49:46.550Z,5.06
2023-12-27T02:52:14.334Z,5.03
2023-12-27T02:54:42.036Z,4.99
2023-12-27T02:57:09.750Z,4.96
2023-12-27T02:59:37.465Z,4.90
2023-12-27T03:02:05.195Z,4.84
2023-12-27T03:04:34.079Z,4.82
2023-12-27T03:07:02.078Z,4.75
2023-12-27T03:09:29.947Z,4.72
2023-12-27T03:11:58.084Z,4.66
2023-12-27T03:14:26.434Z,4.61
2023-12-27T03:16:54.109Z,4.57
2023-12-27T03:19:21.935Z,4.53
2023-12-27T03:21:49.650Z,4.50
2023-12-27T03:24:17.824Z,4.46
2023-12-27T03:26:45.869Z,4.43
2023-12-27T03:29:13.575Z,4.39
2023-12-27T03:31:43.606Z,4.36
2023-12-27T03:34:11.360Z,4.35
2023-12-27T03:36:39.209Z,4.38
2023-12-27T03:39:06.918Z,4.37
2023-12-27T03:41:34.634Z,4.33
2023-12-27T03:44:02.365Z,4.31
2023-12-27T03:46:30.733Z,4.29
2023-12-27T03:48:58.556Z,4.26
2023-12-27T03:51:26.430Z,4.24
2023-12-27T03:53:54.339Z,4.20
2023-12-27T03:56:21.994Z,4.21
2023-12-27T03:58:49.757Z,4.24
2023-12-27T04:01:22.334Z,4.28
2023-12-27T04:03:50.339Z,4.27
2023-12-27T04:06:20.048Z,4.25
2023-12-27T04:08:48.448Z,4.21
2023-12-27T04:11:16.399Z,4.18
2023-12-27T04:13:44.455Z,4.17
2023-12-27T04:16:12.393Z,4.16
2023-12-27T04:18:40.454Z,4.14
2023-12-27T04:21:08.550Z,4.09
2023-12-27T04:23:36.296Z,4.09
2023-12-27T04:26:06.279Z,4.09
2023-12-27T04:28:33.997Z,4.10
2023-12-27T04:31:01.772Z,4.09
2023-12-27T04:33:29.607Z,4.10
2023-12-27T04:35:59.485Z,4.12
2023-12-27T04:38:27.905Z,4.12
2023-12-27T04:40:56.408Z,4.13
2023-12-27T04:43:24.721Z,4.15
2023-12-27T04:45:52.425Z,4.17
2023-12-27T04:48:20.182Z,4.18
2023-12-27T04:50:47.981Z,4.20
2023-12-27T04:53:16.022Z,4.24
2023-12-27T04:55:43.763Z,4.26
2023-12-27T04:58:11.550Z,4.28
2023-12-27T05:00:39.896Z,4.30
2023-12-27T05:03:10.371Z,4.33
2023-12-27T05:05:38.825Z,4.35
2023-12-27T05:08:06.909Z,4.37
2023-12-27T05:10:34.622Z,4.40
2023-12-27T05:13:02.319Z,4.42
2023-12-27T05:15:30.061Z,4.44
2023-12-27T05:17:58.158Z,4.43
2023-12-27T05:20:26.133Z,4.39
2023-12-27T05:22:53.789Z,4.38
2023-12-27T05:25:21.589Z,4.36
2023-12-27T05:27:49.264Z,4.31
2023-12-27T05:30:17.699Z,4.29
2023-12-27T05:32:46.111Z,4.28
2023-12-27T05:35:13.912Z,4.23
2023-12-27T05:37:41.648Z,4.19
2023-12-27T05:40:10.364Z,4.16
2023-12-27T05:42:38.162Z,4.10
2023-12-27T05:45:06.860Z,4.05
2023-12-27T05:47:34.658Z,4.00
2023-12-27T05:50:02.617Z,3.97
2023-12-27T05:52:30.320Z,3.95
2023-12-27T05:54:58.039Z,3.92
2023-12-27T05:57:25.720Z,3.87
2023-12-27T05:59:53.493Z,3.85
2023-12-27T06:02:21.153Z,3.87
2023-12-27T06:04:48.942Z,3.84
2023-12-27T06:07:16.789Z,3.82
2023-12-27T06:09:44.573Z,3.81
2023-12-27T06:12:12.260Z,3.80
2023-12-27T06:14:40.356Z,3.79
2023-12-27T06:17:08.149Z,3.78
2023-12-27T06:19:36.924Z,3.76
2023-12-27T06:22:04.928Z,3.74
2023-12-27T06:24:32.658Z,3.75
2023-12-27T06:27:00.491Z,3.73
2023-12-27T06:29:28.652Z,3.74
2023-12-27T06:31:56.389Z,3.76
2023-12-27T06:34:24.163Z,3.76
2023-12-27T06:36:52.700Z,3.76
2023-12-27T06:39:20.451Z,3.74
2023-12-27T06:41:48.775Z,3.76
2023-12-27T06:44:16.476Z,3.76
2023-12-27T06:46:44.256Z,3.76
2023-12-27T06:49:12.042Z,3.76
2023-12-27T06:51:39.972Z,3.78
2023-12-27T06:54:07.776Z,3.78
2023-12-27T06:56:37.732Z,3.81
2023-12-27T06:59:05.616Z,3.80
2023-12-27T07:01:33.317Z,3.82
2023-12-27T07:04:01.065Z,3.84
2023-12-27T07:06:29.080Z,3.87
2023-12-27T07:08:56.877Z,3.87
2023-12-27T07:11:26.234Z,3.88
2023-12-27T07:13:54.205Z,3.88
2023-12-27T07:16:22.050Z,3.88
2023-12-27T07:18:49.856Z,3.88
2023-12-27T07:21:17.692Z,3.90
2023-12-27T07:23:45.730Z,3.94
2023-12-27T07:26:14.141Z,3.96
2023-12-27T07:28:42.183Z,3.98
2023-12-27T07:31:09.971Z,4.04
2023-12-27T07:33:41.312Z,4.08
2023-12-27T07:36:09.783Z,4.09
2023-12-27T07:38:37.571Z,4.10
2023-12-27T07:41:08.870Z,4.12
2023-12-27T07:43:36.951Z,4.16
2023-12-27T07:46:04.825Z,4.22
2023-12-27T07:48:34.201Z,4.24
2023-12-27T07:51:02.149Z,4.28
2023-12-27T07:53:30.332Z,4.31
2023-12-27T07:55:57.984Z,4.33
2023-12-27T07:58:25.655Z,4.35
2023-12-27T08:00:54.436Z,4.38
2023-12-27T08:03:22.419Z,4.39
2023-12-27T08:05:50.709Z,4.42
2023-12-27T08:08:18.541Z,4.44
2023-12-27T08:10:46.226Z,4.42
2023-12-27T08:13:13.896Z,4.43
2023-12-27T08:15:41.845Z,4.47
2023-12-27T08:18:09.771Z,4.50
2023-12-27T08:20:38.305Z,4.52
2023-12-27T08:23:07.541Z,4.52
2023-12-27T08:25:36.208Z,4.54
2023-12-27T08:28:06.340Z,4.57
2023-12-27T08:30:34.112Z,4.60
2023-12-27T08:33:02.451Z,4.61
2023-12-27T08:35:30.323Z,4.64
2023-12-27T08:37:58.286Z,4.65
2023-12-27T08:40:26.432Z,4.66
2023-12-27T08:42:55.156Z,4.67
2023-12-27T08:45:22.865Z,4.66
2023-12-27T08:47:53.039Z,4.68
2023-12-27T08:50:21.239Z,4.73
2023-12-27T08:52:50.982Z,4.74
2023-12-27T08:55:18.686Z,4.75
2023-12-27T08:57:47.216Z,4.74
2023-12-27T09:00:15.639Z,4.76
2023-12-27T09:02:43.433Z,4.80
2023-12-27T09:05:11.135Z,4.80
2023-12-27T09:07:39.111Z,4.83
2023-12-27T09:10:07.955Z,4.83
2023-12-27T09:12:35.797Z,4.84
2023-12-27T09:15:04.429Z,4.82
2023-12-27T09:17:32.229Z,4.84
2023-12-27T09:20:00.000Z,4.86
2023-12-27T09:22:29.302Z,4.90
2023-12-27T09:24:57.128Z,4.98
2023-12-27T09:27:26.694Z,5.02
2023-12-27T09:29:54.804Z,4.98
2023-12-27T09:32:22.775Z,5.02
2023-12-27T09:34:50.762Z,5.01
2023-12-27T09:38:19.679Z,4.98
2023-12-27T09:41:48.281Z,5.01
2023-12-27T09:45:16.859Z,4.96
2023-12-27T09:48:45.913Z,4.98
2023-12-27T09:52:14.634Z,5.01
2023-12-27T09:55:43.398Z,4.99
2023-12-27T09:59:12.935Z,5.03
2023-12-27T10:02:42.040Z,5.11
2023-12-27T10:06:25.912Z,5.08
2023-12-27T10:09:55.874Z,5.09
2023-12-27T10:13:26.485Z,5.09
2023-12-27T10:16:55.082Z,5.09
2023-12-27T10:20:39.020Z,5.12
2023-12-27T10:24:07.635Z,5.13
2023-12-27T10:27:36.265Z,5.13
2023-12-27T10:31:05.680Z,5.17
2023-12-27T10:34:40.416Z,5.23
2023-12-27T10:38:09.454Z,5.27
2023-12-27T10:41:38.387Z,5.29
2023-12-27T10:45:09.854Z,5.35
2023-12-27T10:48:38.583Z,5.36
2023-12-27T10:52:07.365Z,5.38
2023-12-27T10:55:35.926Z,5.36
2023-12-27T10:59:04.584Z,5.39
2023-12-27T11:02:36.328Z,5.41
2023-12-27T11:06:05.261Z,5.48
2023-12-27T11:09:34.326Z,5.55
2023-12-27T11:13:02.865Z,5.57
2023-12-27T11:16:31.592Z,5.58
2023-12-27T11:20:00.328Z,5.58
2023-12-27T11:23:29.106Z,5.62
2023-12-27T11:27:00.733Z,5.62
2023-12-27T11:30:35.962Z,5.63
2023-12-27T11:34:05.106Z,5.69
2023-12-27T11:37:13.652Z,5.70
2023-12-27T11:40:42.733Z,5.65
2023-12-27T11:44:09.735Z,5.63
2023-12-27T11:47:38.529Z,5.61
2023-12-27T11:51:13.058Z,5.56
2023-12-27T11:54:41.863Z,5.53
2023-12-27T11:58:10.645Z,5.51
2023-12-27T12:01:39.429Z,5.45
2023-12-27T12:05:26.517Z,5.46
2023-12-27T12:09:02.541Z,5.46
2023-12-27T12:12:31.385Z,5.45
2023-12-27T12:16:03.023Z,5.43
2023-12-27T12:19:32.154Z,5.47
2023-12-27T12:23:02.938Z,5.55
2023-12-27T12:26:31.738Z,5.56
2023-12-27T12:30:00.426Z,5.55
2023-12-27T12:33:29.448Z,5.59
2023-12-27T12:36:58.312Z,5.56
2023-12-27T12:40:27.135Z,5.50
2023-12-27T12:43:55.712Z,5.48
2023-12-27T12:47:24.333Z,5.50
2023-12-27T12:50:53.243Z,5.50
2023-12-27T12:54:22.112Z,5.46
2023-12-27T12:57:50.703Z,5.39
2023-12-27T13:01:14.959Z,5.34
2023-12-27T13:04:42.863Z,5.24
2023-12-27T13:07:51.214Z,5.15
2023-12-27T13:11:20.268Z,5.08
2023-12-27T13:14:48.963Z,5.05
2023-12-27T13:18:17.713Z,5.02
2023-12-27T13:21:47.241Z,4.98
2023-12-27T13:25:16.437Z,4.96
2023-12-27T13:28:45.168Z,4.97
2023-12-27T13:32:14.110Z,4.98
2023-12-27T13:35:42.966Z,5.01
2023-12-27T13:39:11.583Z,4.95
2023-12-27T13:42:40.537Z,4.92
2023-12-27T13:46:09.839Z,4.89
2023-12-27T13:49:38.632Z,4.81
2023-12-27T13:53:07.736Z,4.72
2023-12-27T13:56:26.583Z,4.65
2023-12-27T13:59:55.422Z,4.55
2023-12-27T14:03:24.044Z,4.50
2023-12-27T14:06:51.431Z,4.45
2023-12-27T14:10:21.162Z,4.40
2023-12-27T14:13:49.793Z,4.37
2023-12-27T14:17:18.339Z,4.31
2023-12-27T14:20:48.165Z,4.27
2023-12-27T14:24:16.840Z,4.25
2023-12-27T14:27:45.840Z,4.19
2023-12-27T14:31:15.309Z,4.17
2023-12-27T14:34:44.183Z,4.12
2023-12-27T14:38:12.955Z,4.04
2023-12-27T14:41:41.477Z,3.97
2023-12-27T14:45:10.164Z,3.88
2023-12-27T14:48:28.692Z,3.80
2023-12-27T14:51:57.716Z,3.72
2023-12-27T14:55:26.579Z,3.64
2023-12-27T14:58:55.280Z,3.55
2023-12-27T15:02:24.214Z,3.49
2023-12-27T15:05:53.091Z,3.42
2023-12-27T15:09:13.589Z,3.37
2023-12-27T15:12:42.555Z,3.31
2023-12-27T15:16:05.493Z,3.24
2023-12-27T15:19:23.696Z,3.16
2023-12-27T15:22:52.650Z,3.09
2023-12-27T15:26:10.154Z,3.04
2023-12-27T15:29:39.285Z,3.01
2023-12-27T15:33:09.809Z,3.00
2023-12-27T15:36:38.769Z,3.03
2023-12-27T15:40:07.693Z,3.10
2023-12-27T15:43:36.535Z,3.18
2023-12-27T15:47:06.892Z,3.27
2023-12-27T15:50:26.597Z,3.36
2023-12-27T15:53:55.407Z,3.42
2023-12-27T15:57:30.179Z,3.48
2023-12-27T16:00:59.006Z,3.52
2023-12-27T16:04:27.902Z,3.56
2023-12-27T16:07:56.892Z,3.59
2023-12-27T16:11:25.844Z,3.61
2023-12-27T16:14:47.023Z,3.63
2023-12-27T16:18:05.805Z,3.63
2023-12-27T16:21:35.257Z,3.65
2023-12-27T16:25:04.259Z,3.66
2023-12-27T16:28:34.774Z,3.68
2023-12-27T16:32:03.576Z,3.69
2023-12-27T16:35:31.245Z,3.71
2023-12-27T16:38:40.847Z,3.75
2023-12-27T16:42:10.351Z,3.78
2023-12-27T16:45:39.265Z,3.76
2023-12-27T16:49:08.942Z,3.75
2023-12-27T16:52:37.758Z,3.75
2023-12-27T16:55:59.619Z,3.74
2023-12-27T16:59:28.305Z,3.75
2023-12-27T17:02:58.091Z,3.75
2023-12-27T17:06:27.339Z,3.74
2023-12-27T17:09:55.910Z,3.74
2023-12-27T17:13:24.497Z,3.74
2023-12-27T17:16:53.083Z,3.72
2023-12-27T17:20:21.860Z,3.68
2023-12-27T17:23:53.254Z,3.60
2023-12-27T17:27:21.978Z,3.50
2023-12-27T17:30:51.125Z,3.40
2023-12-27T17:34:20.575Z,3.29
2023-12-27T17:37:52.401Z,3.18
2023-12-27T17:41:21.257Z,3.04
2023-12-27T17:44:49.956Z,2.90
2023-12-27T17:48:18.860Z,2.75
2023-12-27T17:51:50.498Z,2.61
2023-12-27T17:55:19.242Z,2.50
2023-12-27T17:58:47.807Z,2.36
2023-12-27T18:02:16.713Z,2.23
2023-12-27T18:05:45.644Z,2.11
2023-12-27T18:09:14.598Z,2.03
2023-12-27T18:12:43.431Z,1.95
2023-12-27T18:16:12.333Z,1.87
2023-12-27T18:19:41.440Z,1.80
2023-12-27T18:23:10.547Z,1.73
2023-12-27T18:26:42.276Z,1.68
2023-12-27T18:30:02.147Z,1.60
2023-12-27T18:33:30.830Z,1.51
2023-12-27T18:37:02.099Z,1.42
2023-12-27T18:40:30.888Z,1.34
2023-12-27T18:43:59.484Z,1.29
2023-12-27T18:47:28.799Z,1.25
2023-12-27T18:50:57.587Z,1.22
2023-12-27T18:54:26.486Z,1.20
2023-12-27T18:57:58.085Z,1.18
2023-12-27T19:01:26.966Z,1.14
2023-12-27T19:04:55.434Z,1.09
2023-12-27T19:08:14.198Z,1.00
2023-12-27T19:11:42.815Z,0.91
2023-12-27T19:15:11.972Z,0.85
2023-12-27T19:18:41.158Z,0.77
2023-12-27T19:22:10.097Z,0.74
2023-12-27T19:25:21.915Z,0.72
2023-12-27T19:28:50.653Z,0.73
2023-12-27T19:32:19.237Z,0.72
2023-12-27T19:35:50.842Z,0.71
2023-12-27T19:39:19.568Z,0.69
2023-12-27T19:42:48.524Z,0.69
2023-12-27T19:46:17.356Z,0.66
2023-12-27T19:49:46.353Z,0.66
2023-12-27T19:53:16.305Z,0.70
2023-12-27T19:56:45.448Z,0.72
2023-12-27T20:00:14.283Z,0.71
2023-12-27T20:03:43.023Z,0.70
2023-12-27T20:07:11.586Z,0.70
2023-12-27T20:10:40.478Z,0.70
2023-12-27T20:14:09.042Z,0.68
2023-12-27T20:17:30.782Z,0.64
2023-12-27T20:20:39.198Z,0.62
2023-12-27T20:24:07.870Z,0.59
2023-12-27T20:27:36.445Z,0.53
2023-12-27T20:31:05.735Z,0.49
2023-12-27T20:34:16.941Z,0.47
2023-12-27T20:37:45.913Z,0.45
2023-12-27T20:40:55.915Z,0.43
2023-12-27T20:44:24.511Z,0.41
2023-12-27T20:47:43.115Z,0.37
2023-12-27T20:51:04.957Z,0.35
2023-12-27T20:54:34.258Z,0.32
2023-12-27T20:57:42.946Z,0.30
2023-12-27T21:00:59.115Z,0.28
2023-12-27T21:04:28.831Z,0.27
2023-12-27T21:07:42.865Z,0.24
2023-12-27T21:11:11.591Z,0.22
2023-12-27T21:14:38.942Z,0.19
2023-12-27T21:18:00.738Z,0.19
2023-12-27T21:21:28.406Z,0.18
2023-12-27T21:24:57.392Z,0.15
2023-12-27T21:28:25.984Z,0.12
2023-12-27T21:31:42.850Z,0.06
2023-12-27T21:35:10.088Z,0.01
2023-12-27T21:38:38.796Z,-0.04
2023-12-27T21:42:07.407Z,-0.08
2023-12-27T21:45:38.933Z,-0.12
2023-12-27T21:49:08.024Z,-0.15
2023-12-27T21:52:30.426Z,-0.19
2023-12-27T21:56:02.092Z,-0.22
2023-12-27T21:59:21.373Z,-0.27
2023-12-27T22:02:42.716Z,-0.31
2023-12-27T22:05:48.295Z,-0.35
2023-12-27T22:08:58.944Z,-0.37
2023-12-27T22:12:27.560Z,-0.38
2023-12-27T22:16:00.801Z,-0.38
2023-12-27T22:19:29.321Z,-0.39
2023-12-27T22:22:49.693Z,-0.39
2023-12-27T22:26:18.510Z,-0.38
2023-12-27T22:29:47.063Z,-0.38
2023-12-27T22:33:16.222Z,-0.39
2023-12-27T22:36:44.524Z,-0.38
2023-12-27T22:40:13.093Z,-0.36
2023-12-27T22:43:41.819Z,-0.32
2023-12-27T22:47:10.354Z,-0.26
2023-12-27T22:50:38.985Z,-0.18
2023-12-27T22:54:07.935Z,-0.11
2023-12-27T22:57:36.806Z,-0.02
2023-12-27T23:01:06.992Z,0.06
2023-12-27T23:04:35.875Z,0.15
2023-12-27T23:08:04.665Z,0.23
2023-12-27T23:11:33.434Z,0.31
2023-12-27T23:15:02.307Z,0.38
2023-12-27T23:18:30.744Z,0.44
2023-12-27T23:21:59.933Z,0.50
2023-12-27T23:25:27.337Z,0.54
2023-12-27T23:28:49.803Z,0.57
2023-12-27T23:39:04.272Z,0.59
2023-12-27T23:42:31.916Z,0.58
2023-12-27T23:46:00.910Z,0.56
2023-12-27T23:49:22.621Z,0.55
2023-12-27T23:52:30.917Z,0.53
2023-12-27T23:55:39.214Z,0.51
2023-12-27T23:59:07.864Z,0.49
